»·PEaware :: AWE427 KLAS-KLAX

AWE427 :: KLAS-KLAX

FLIGHT INFORMATION

Flight Status: Arrived
Operator:
US Airways
More flights by this operator :: More flights under this callsign
Pilot: Ben F. (13029)
Aircraft: BOEING 737-300
(B733)
More flights by this aircraft type
Origin: KLAS McCarran Intl
United States
Destination: KLAX Los Angeles Intl
United States
More flights between these airports :: More routes between these airports
Route: +BOACH8 RIKII SHTNR ANJLL4
File this flight plan on PilotEdge
Remarks: RMK / SIMBRIEF
Altitude:
(Current/Filed)
30,000ft
Speed:
(Current/Filed)
431kts
Departed: 20-Feb-19 04:32 PM
Arrived: 20-Feb-19 05:24 PM
Distance/Time
Traveled:
206nm/0:52
Distance/Time
To Go:
Arrived

Flight Plot

Page will automatically refresh every two minutes.

Flight plan parsing failed; only flown route is shown


Map Options




Map Legend


Flown Route
Filed Route
Departure Airport
Arrival Airport
Navaid (VOR, NDB)
Fix

Horizontal Profiles

Position Reports

Time Latitude Longitude Heading Altitude Ground
Speed
20-Feb-19 16:05 36.085503 -115.155038 111 2118ft 0kts
20-Feb-19 16:06 36.085503 -115.155038 111 2118ft 0kts
20-Feb-19 16:07 36.085503 -115.155038 111 2118ft 0kts
20-Feb-19 16:08 36.085503 -115.155038 111 2118ft 0kts
20-Feb-19 16:09 36.085503 -115.155038 111 2118ft 0kts
20-Feb-19 16:10 36.085503 -115.155038 111 2118ft 0kts
20-Feb-19 16:11 36.085503 -115.155038 111 2118ft 0kts
20-Feb-19 16:12 36.085503 -115.155038 111 2118ft 0kts
20-Feb-19 16:13 36.085503 -115.155038 111 2118ft 0kts
20-Feb-19 16:14 36.085503 -115.155038 111 2118ft 0kts
20-Feb-19 16:15 36.085503 -115.155038 111 2118ft 0kts
20-Feb-19 16:16 36.085503 -115.155038 111 2118ft 0kts
20-Feb-19 16:17 36.085503 -115.155038 111 2118ft 0kts
20-Feb-19 16:18 36.085503 -115.155038 111 2118ft 0kts
20-Feb-19 16:19 36.085756 -115.155349 162 2118ft 2kts
20-Feb-19 16:20 36.086103 -115.155317 208 2118ft 0kts
20-Feb-19 16:21 36.086103 -115.155317 208 2118ft 0kts
20-Feb-19 16:22 36.086103 -115.155317 208 2118ft 0kts
20-Feb-19 16:23 36.085705 -115.155661 221 2118ft 6kts
20-Feb-19 16:24 36.084611 -115.156560 165 2118ft 0kts
20-Feb-19 16:25 36.084176 -115.156928 247 2118ft 6kts
20-Feb-19 16:26 36.082949 -115.160275 204 2118ft 17kts
20-Feb-19 16:27 36.078982 -115.162540 205 2118ft 13kts
20-Feb-19 16:28 36.075880 -115.164333 205 2118ft 10kts
20-Feb-19 16:29 36.073916 -115.166198 290 2118ft 8kts
20-Feb-19 16:30 36.073939 -115.166279 288 2118ft 0kts
20-Feb-19 16:31 36.077709 -115.165511 25 2118ft 76kts
20-Feb-19 16:32 36.118768 -115.142894 3 2875ft 191kts
20-Feb-19 16:33 36.149356 -115.184292 257 3461ft 180kts
20-Feb-19 16:34 36.125324 -115.247922 239 4530ft 243kts
20-Feb-19 16:35 36.079535 -115.302404 203 7600ft 227kts
20-Feb-19 16:36 36.018179 -115.331885 203 9586ft 254kts
20-Feb-19 16:37 35.951462 -115.364447 206 12001ft 261kts
20-Feb-19 16:38 35.878877 -115.373015 170 14245ft 290kts
20-Feb-19 16:39 35.801533 -115.342566 171 16476ft 296kts
20-Feb-19 16:40 35.721657 -115.311431 172 18479ft 303kts
20-Feb-19 16:41 35.640192 -115.295796 190 20276ft 294kts
20-Feb-19 16:42 35.557399 -115.299348 190 21944ft 300kts
20-Feb-19 16:43 35.478442 -115.320860 215 23415ft 288kts
20-Feb-19 16:44 35.440019 -115.349182 215 24212ft 290kts
20-Feb-19 16:46 35.249959 -115.487389 215 25960ft 352kts
20-Feb-19 16:48 35.166928 -115.547420 215 27950ft 339kts
20-Feb-19 16:49 35.095403 -115.614935 229 29914ft 310kts
20-Feb-19 16:50 35.050402 -115.673171 228 30183ft 322kts
20-Feb-19 16:51 35.002056 -115.736825 229 30232ft 337kts
20-Feb-19 16:52 34.943712 -115.810711 228 30239ft 341kts
20-Feb-19 16:53 34.899167 -115.867197 229 30238ft 342kts
20-Feb-19 16:54 34.832460 -115.949767 228 30256ft 345kts
20-Feb-19 16:55 34.764454 -116.033453 228 30001ft 344kts
20-Feb-19 16:56 34.696244 -116.117054 228 30022ft 346kts
20-Feb-19 16:57 34.627976 -116.200800 228 30008ft 346kts
20-Feb-19 16:58 34.563849 -116.287527 232 30009ft 343kts
20-Feb-19 16:59 34.498879 -116.373512 229 30015ft 345kts
20-Feb-19 17:00 34.431051 -116.459436 229 27405ft 348kts
20-Feb-19 17:01 34.385151 -116.553539 243 24849ft 336kts
20-Feb-19 17:02 34.344212 -116.653421 243 23939ft 331kts
20-Feb-19 17:03 34.303697 -116.753893 244 23978ft 331kts
20-Feb-19 17:04 34.263160 -116.854670 243 23907ft 330kts
20-Feb-19 17:05 34.222978 -116.954262 243 21431ft 320kts
20-Feb-19 17:06 34.191769 -117.054967 249 19037ft 313kts
20-Feb-19 17:07 34.164774 -117.154860 249 17046ft 303kts
20-Feb-19 17:07 34.142123 -117.237189 249 14897ft 305kts
20-Feb-19 17:09 34.111583 -117.348167 249 14132ft 291kts
20-Feb-19 17:10 34.091900 -117.444943 255 12764ft 293kts
20-Feb-19 17:11 34.075184 -117.537460 255 12115ft 288kts
20-Feb-19 17:11 34.061191 -117.614596 255 12129ft 289kts
20-Feb-19 17:12 34.044011 -117.709057 254 12133ft 288kts
20-Feb-19 17:14 34.013152 -117.812340 223 12145ft 284kts
20-Feb-19 17:14 33.961910 -117.864706 222 10306ft 288kts
20-Feb-19 17:15 33.921909 -117.940641 285 8042ft 281kts
20-Feb-19 17:16 33.949432 -118.023661 292 6321ft 258kts
20-Feb-19 17:17 33.965431 -118.106537 269 4948ft 241kts
20-Feb-19 17:18 33.958444 -118.180029 264 3963ft 204kts
20-Feb-19 17:19 33.951742 -118.245422 262 2560ft 193kts
20-Feb-19 17:20 33.945385 -118.305970 260 1961ft 182kts
20-Feb-19 17:21 33.939115 -118.366779 259 325ft 172kts
20-Feb-19 17:22 33.934252 -118.412902 262 110ft 57kts
20-Feb-19 17:23 33.932751 -118.417829 117 110ft 0kts
20-Feb-19 17:24 33.932751 -118.417829 117 110ft 0kts

Navigation Log

Ident Type
Flight plan parsing failed, navigation log unavailable